LGRP

Diagoras Airport

Rodes Island, Greece
TAF LGRP 252300Z 2600/2624 25012KT 9999 FEW018
Issued Valid From Valid To
Apr-25 @ 23:00 UTC
(5 hours ago)
Apr-26 @ 00:00 UTC
(4 hours ago)
Apr-27 @ 00:00 UTC
(in 20 hours)
Apr-26 @ 00:00 to Apr-27 @ 00:00
TAF LGRP 252300Z 2600/2624 25012KT 9999 FEW018
Wind Visibility Clouds
250° at 12 knots 10,000+ meters
  • Few at 1,800' AGL
TAF LGRP 252300Z 2600/2624 25012KT 9999 FEW018
Issued Apr-25 @ 23:00 UTC
(5 hours ago)
Valid From Apr-26 @ 00:00 UTC
(4 hours ago)
Valid To Apr-27 @ 00:00 UTC
(in 20 hours)
Apr-26 @ 00:00 - Apr-27 @ 00:00
Wind Visibility
250° at 12 knots 10,000+ meters
Clouds
  • Few at 1,800' AGL